createdAt,value
2022-08-22T00:02:46.587Z,5.63
2022-08-22T00:05:17.120Z,3.93
2022-08-22T00:08:39.861Z,2.88
2022-08-22T00:12:01.887Z,3.75
2022-08-22T00:15:42.063Z,5.08
2022-08-22T00:18:47.909Z,4.23
2022-08-22T00:22:09.943Z,4.18
2022-08-22T00:25:48.283Z,4.78
2022-08-22T00:29:09.943Z,3.48
2022-08-22T00:32:33.502Z,4.48
2022-08-22T00:35:55.847Z,4.70
2022-08-22T00:39:20.120Z,5.75
2022-08-22T00:43:13.522Z,6.08
2022-08-22T00:47:00.168Z,3.90
2022-08-22T00:50:53.704Z,5.45
2022-08-22T00:54:17.953Z,5.40
2022-08-22T00:57:59.096Z,5.63
2022-08-22T01:01:19.312Z,6.98
2022-08-22T01:05:02.733Z,9.50
2022-08-22T01:08:53.110Z,8.10
2022-08-22T01:12:20.412Z,8.53
2022-08-22T01:15:41.034Z,9.90
2022-08-22T01:19:46.714Z,12.50
2022-08-22T01:23:30.425Z,8.58
2022-08-22T01:27:25.168Z,10.08
2022-08-22T01:31:48.169Z,9.90
2022-08-22T01:35:47.546Z,10.55
2022-08-22T01:39:28.593Z,10.43
2022-08-22T01:43:11.576Z,8.30
2022-08-22T01:46:59.973Z,11.30
2022-08-22T01:50:27.297Z,9.10
2022-08-22T01:53:52.059Z,9.33
2022-08-22T01:57:13.600Z,9.55
2022-08-22T02:00:34.834Z,7.45
2022-08-22T02:03:59.037Z,11.10
2022-08-22T02:07:20.053Z,10.68
2022-08-22T02:10:56.605Z,9.15
2022-08-22T02:14:26.569Z,9.78
2022-08-22T02:17:54.317Z,9.28
2022-08-22T02:21:17.893Z,11.80
2022-08-22T02:24:46.646Z,9.40
2022-08-22T02:28:09.563Z,10.73
2022-08-22T02:31:30.134Z,8.88
2022-08-22T02:34:52.227Z,10.43
2022-08-22T02:38:28.719Z,9.28
2022-08-22T02:41:56.385Z,14.53
2022-08-22T02:45:21.580Z,12.48
2022-08-22T02:48:45.271Z,13.80
2022-08-22T02:52:07.310Z,13.58
2022-08-22T02:55:29.063Z,11.68
2022-08-22T02:58:51.224Z,13.98
2022-08-22T03:02:27.293Z,10.95
2022-08-22T03:06:04.036Z,12.23
2022-08-22T03:09:35.071Z,9.35
2022-08-22T03:12:58.848Z,11.08
2022-08-22T03:16:21.220Z,9.33
2022-08-22T03:19:49.772Z,8.63
2022-08-22T03:23:11.812Z,9.65
2022-08-22T03:26:33.568Z,8.78
2022-08-22T03:29:56.555Z,10.13
2022-08-22T03:33:28.492Z,9.73
2022-08-22T03:36:44.823Z,14.65
2022-08-22T03:40:08.406Z,9.53
2022-08-22T03:43:52.620Z,11.63
2022-08-22T03:47:31.076Z,13.13
2022-08-22T03:51:22.473Z,10.73
2022-08-22T03:55:10.793Z,11.53
2022-08-22T04:02:24.653Z,10.65
2022-08-22T04:06:13.040Z,17.73
2022-08-22T04:09:55.375Z,13.95
2022-08-22T04:13:34.653Z,14.40
2022-08-22T04:17:30.596Z,14.73
2022-08-22T04:21:28.066Z,13.73
2022-08-22T04:24:56.174Z,15.25
2022-08-22T04:28:17.304Z,12.58
2022-08-22T04:31:40.795Z,12.73
2022-08-22T04:35:01.778Z,14.18
2022-08-22T04:38:22.647Z,16.00
2022-08-22T04:41:47.437Z,16.20
2022-08-22T04:45:09.871Z,15.13
2022-08-22T04:48:32.362Z,14.85
2022-08-22T04:51:53.446Z,11.75
2022-08-22T04:55:17.049Z,14.25
2022-08-22T04:58:43.755Z,12.20
2022-08-22T05:02:06.446Z,15.90
2022-08-22T05:05:27.242Z,13.20
2022-08-22T05:08:48.462Z,17.18
2022-08-22T05:12:09.846Z,17.05
2022-08-22T05:15:32.789Z,19.08
2022-08-22T05:18:54.017Z,16.93
2022-08-22T05:22:11.872Z,17.23
2022-08-22T05:25:33.199Z,16.88
2022-08-22T05:28:55.490Z,19.43
2022-08-22T05:32:17.107Z,18.53
2022-08-22T05:35:43.910Z,21.23
2022-08-22T05:39:05.236Z,18.40
2022-08-22T05:42:28.522Z,20.65
2022-08-22T05:45:49.816Z,20.05
2022-08-22T05:49:09.490Z,19.20
2022-08-22T05:52:32.969Z,19.08
2022-08-22T05:55:58.755Z,22.08
2022-08-22T05:59:24.128Z,22.28
2022-08-22T06:02:52.883Z,22.43
2022-08-22T06:06:14.671Z,23.25
2022-08-22T06:09:35.864Z,21.40
2022-08-22T06:12:57.893Z,24.83
2022-08-22T06:16:21.843Z,21.77
2022-08-22T06:19:41.000Z,23.40
2022-08-22T06:23:01.682Z,21.98
2022-08-22T06:26:21.489Z,17.60
2022-08-22T06:29:45.803Z,20.38
2022-08-22T06:33:05.953Z,16.25
2022-08-22T06:36:36.874Z,15.38
2022-08-22T06:39:57.080Z,15.45
2022-08-22T06:43:16.271Z,13.78
2022-08-22T06:46:36.861Z,16.58
2022-08-22T06:49:54.702Z,17.08
2022-08-22T06:53:15.427Z,14.03
2022-08-22T06:56:36.226Z,15.03
2022-08-22T06:59:52.974Z,17.80
2022-08-22T07:03:14.133Z,18.23
2022-08-22T07:06:36.525Z,15.63
2022-08-22T07:09:58.466Z,16.28
2022-08-22T07:13:15.109Z,17.58
2022-08-22T07:16:39.772Z,20.10
2022-08-22T07:20:06.911Z,15.68
2022-08-22T07:23:32.433Z,17.10
2022-08-22T07:26:53.664Z,18.75
2022-08-22T07:30:14.817Z,21.45
2022-08-22T07:33:48.530Z,18.63
2022-08-22T07:37:11.036Z,15.88
2022-08-22T07:40:37.266Z,19.63
2022-08-22T07:43:58.913Z,17.90
2022-08-22T07:47:26.175Z,22.80
2022-08-22T07:50:44.649Z,21.73
2022-08-22T07:54:05.024Z,22.43
2022-08-22T07:57:26.278Z,21.48
2022-08-22T08:00:48.821Z,22.25
2022-08-22T08:04:10.110Z,22.05
2022-08-22T08:07:32.246Z,18.23
2022-08-22T08:10:49.581Z,21.10
2022-08-22T08:14:13.629Z,21.55
2022-08-22T08:17:35.273Z,18.28
2022-08-22T08:20:51.544Z,23.40
2022-08-22T08:24:11.029Z,19.55
2022-08-22T08:27:45.863Z,21.25
2022-08-22T08:31:10.900Z,21.58
2022-08-22T08:34:33.048Z,20.95
2022-08-22T08:37:55.735Z,19.28
2022-08-22T08:41:41.900Z,21.63
2022-08-22T08:45:32.029Z,19.00
2022-08-22T08:49:08.723Z,18.08
2022-08-22T08:53:11.008Z,18.28
2022-08-22T08:56:35.329Z,23.55
2022-08-22T08:59:57.849Z,21.08
2022-08-22T09:03:30.576Z,23.50
2022-08-22T09:07:05.509Z,23.75
2022-08-22T09:10:55.406Z,26.20
2022-08-22T09:14:27.911Z,23.53
2022-08-22T09:18:18.251Z,32.68
2022-08-22T09:22:01.823Z,26.43
2022-08-22T09:25:38.434Z,26.83
2022-08-22T09:28:57.118Z,29.30
2022-08-22T09:32:22.227Z,36.30
2022-08-22T09:35:49.114Z,30.93
2022-08-22T09:39:11.405Z,31.18
2022-08-22T09:42:33.277Z,29.28
2022-08-22T09:46:02.031Z,34.05
2022-08-22T09:49:23.946Z,33.85
2022-08-22T09:53:01.437Z,30.83
2022-08-22T09:56:26.183Z,33.68
2022-08-22T10:00:10.630Z,29.25
2022-08-22T10:03:36.489Z,32.98
2022-08-22T10:06:59.580Z,29.48
2022-08-22T10:10:31.744Z,29.13
2022-08-22T10:13:57.566Z,27.00
2022-08-22T10:17:21.742Z,27.10
2022-08-22T10:20:56.735Z,36.85
2022-08-22T10:24:25.759Z,30.38
2022-08-22T10:27:53.089Z,27.18
2022-08-22T10:31:31.315Z,30.35
2022-08-22T10:34:52.891Z,28.27
2022-08-22T10:38:16.200Z,27.55
2022-08-22T10:41:41.541Z,27.00
2022-08-22T10:45:13.741Z,24.28
2022-08-22T10:48:48.424Z,28.48
2022-08-22T10:52:15.614Z,25.35
2022-08-22T10:55:30.931Z,26.60
2022-08-22T10:58:55.349Z,28.48
2022-08-22T11:02:32.519Z,26.10
2022-08-22T11:05:54.115Z,26.25
2022-08-22T11:09:32.153Z,26.28
2022-08-22T11:12:53.289Z,27.35
2022-08-22T11:16:36.544Z,29.23
2022-08-22T11:20:06.695Z,28.30
2022-08-22T11:23:33.279Z,27.25
2022-08-22T11:26:56.684Z,45.80
2022-08-22T11:30:19.118Z,29.20
2022-08-22T11:33:47.301Z,28.23
2022-08-22T11:37:11.034Z,26.55
2022-08-22T11:40:43.937Z,26.95
2022-08-22T11:44:06.303Z,25.88
2022-08-22T11:47:29.091Z,25.58
2022-08-22T11:50:50.017Z,26.68
2022-08-22T11:54:11.745Z,27.88
2022-08-22T11:57:34.931Z,26.20
2022-08-22T12:00:56.843Z,25.80
2022-08-22T12:04:21.875Z,26.80
2022-08-22T12:07:44.434Z,22.35
2022-08-22T12:11:06.581Z,22.98
2022-08-22T12:14:31.923Z,24.55
2022-08-22T12:18:41.886Z,24.73
2022-08-22T12:22:37.103Z,24.28
2022-08-22T12:26:11.045Z,22.85
2022-08-22T12:29:45.114Z,23.30
2022-08-22T12:33:34.603Z,21.40
2022-08-22T12:37:18.257Z,23.98
2022-08-22T12:40:49.802Z,23.48
2022-08-22T12:44:17.191Z,25.93
2022-08-22T12:47:43.916Z,22.05
2022-08-22T12:54:55.567Z,21.10
2022-08-22T12:58:18.649Z,25.48
2022-08-22T13:01:35.583Z,20.75
2022-08-22T13:04:58.027Z,20.25
2022-08-22T13:08:19.595Z,69.35
2022-08-22T13:11:38.026Z,30.63
2022-08-22T13:14:59.332Z,23.23
2022-08-22T13:18:29.697Z,20.00
2022-08-22T13:21:44.380Z,18.25
2022-08-22T13:25:06.413Z,17.90
2022-08-22T13:28:25.185Z,20.73
2022-08-22T13:35:02.405Z,19.03
2022-08-22T13:38:25.850Z,18.95
2022-08-22T13:41:46.357Z,18.70
2022-08-22T13:45:09.493Z,19.40
2022-08-22T13:48:29.154Z,19.83
2022-08-22T13:51:52.521Z,18.13
2022-08-22T13:55:14.754Z,18.05
2022-08-22T13:58:37.457Z,13.58
2022-08-22T14:01:59.130Z,14.40
2022-08-22T14:05:19.896Z,12.78
2022-08-22T14:08:41.152Z,14.75
2022-08-22T14:12:04.936Z,14.80
2022-08-22T14:15:32.234Z,16.15
2022-08-22T14:18:51.199Z,15.60
2022-08-22T14:22:14.380Z,14.38
2022-08-22T14:25:33.580Z,13.90
2022-08-22T14:28:51.314Z,14.90
2022-08-22T14:32:17.704Z,14.45
2022-08-22T14:35:39.139Z,14.38
2022-08-22T14:39:01.873Z,17.23
2022-08-22T14:42:24.358Z,21.53
2022-08-22T14:45:46.459Z,15.03
2022-08-22T14:49:25.487Z,14.43
2022-08-22T14:52:50.739Z,16.73
2022-08-22T14:56:12.130Z,14.28
2022-08-22T14:59:43.287Z,14.78
2022-08-22T15:02:59.931Z,18.68
2022-08-22T15:06:23.104Z,13.80
2022-08-22T15:09:44.710Z,16.28
2022-08-22T15:13:05.232Z,18.10
2022-08-22T15:16:30.585Z,21.80
2022-08-22T15:19:52.260Z,16.05
2022-08-22T15:23:13.576Z,15.65
2022-08-22T15:26:37.599Z,15.10
2022-08-22T15:30:02.810Z,16.80
2022-08-22T15:33:25.019Z,17.88
2022-08-22T15:36:41.908Z,16.60
2022-08-22T15:40:15.066Z,15.55
2022-08-22T15:43:39.370Z,17.65
2022-08-22T15:47:11.584Z,14.70
2022-08-22T15:50:39.637Z,14.28
2022-08-22T15:54:24.446Z,13.60
2022-08-22T15:57:39.709Z,14.33
2022-08-22T16:01:19.975Z,15.30
2022-08-22T16:04:44.583Z,15.40
2022-08-22T16:08:11.892Z,15.05
2022-08-22T16:11:38.916Z,16.85
2022-08-22T16:15:00.576Z,17.23
2022-08-22T16:18:17.099Z,16.70
2022-08-22T16:22:11.090Z,16.80
2022-08-22T16:25:29.500Z,17.23
2022-08-22T16:29:01.619Z,20.00
2022-08-22T16:32:20.087Z,19.85
2022-08-22T16:36:26.265Z,18.13
2022-08-22T16:39:49.218Z,19.25
2022-08-22T16:43:28.980Z,78.65
2022-08-22T16:46:49.598Z,30.73
2022-08-22T16:50:18.929Z,24.53
2022-08-22T16:54:16.945Z,25.50
2022-08-22T16:57:37.582Z,23.73
2022-08-22T17:00:59.092Z,24.30
2022-08-22T17:04:23.053Z,25.68
2022-08-22T17:07:51.414Z,25.68
2022-08-22T17:11:19.771Z,24.45
2022-08-22T17:14:44.651Z,25.28
2022-08-22T17:18:21.221Z,24.25
2022-08-22T17:21:50.672Z,27.95
2022-08-22T17:25:12.431Z,49.58
2022-08-22T17:28:34.647Z,36.38
2022-08-22T17:31:58.845Z,30.53
2022-08-22T17:35:27.496Z,27.63
2022-08-22T17:38:54.062Z,34.00
2022-08-22T17:42:21.085Z,27.33
2022-08-22T17:45:48.103Z,30.98
2022-08-22T17:49:11.191Z,31.63
2022-08-22T17:52:33.247Z,30.43
2022-08-22T17:56:04.609Z,33.08
2022-08-22T17:59:24.817Z,31.48
2022-08-22T18:02:48.741Z,39.05
2022-08-22T18:06:10.116Z,38.25
2022-08-22T18:09:37.356Z,37.10
2022-08-22T18:13:01.427Z,34.58
2022-08-22T18:16:29.360Z,34.55
2022-08-22T18:23:21.321Z,34.98
2022-08-22T18:26:36.874Z,110.05
2022-08-22T18:29:58.703Z,49.68
2022-08-22T18:33:20.096Z,40.10
2022-08-22T18:36:42.624Z,36.65
2022-08-22T18:40:05.200Z,39.35
2022-08-22T18:43:29.665Z,35.43
2022-08-22T18:46:55.831Z,34.25
2022-08-22T18:50:28.286Z,36.45
2022-08-22T18:53:54.826Z,31.80
2022-08-22T18:57:19.915Z,28.40
2022-08-22T19:00:55.952Z,23.10
2022-08-22T19:04:45.322Z,25.95
2022-08-22T19:08:53.690Z,22.93
2022-08-22T19:15:45.887Z,22.55
2022-08-22T19:19:07.134Z,22.23
2022-08-22T19:22:39.157Z,21.65
2022-08-22T19:26:37.317Z,20.33
2022-08-22T19:30:07.898Z,22.35
2022-08-22T19:33:34.583Z,22.15
2022-08-22T19:36:51.112Z,21.83
2022-08-22T19:40:11.252Z,28.63
2022-08-22T19:43:46.858Z,22.83
2022-08-22T19:47:16.056Z,14.60
2022-08-22T19:50:42.232Z,16.18
2022-08-22T19:54:19.128Z,14.20
2022-08-22T19:57:42.052Z,13.48
2022-08-22T20:01:03.740Z,10.78
2022-08-22T20:04:46.340Z,10.85
2022-08-22T20:08:28.461Z,11.68
2022-08-22T20:11:51.664Z,8.70
2022-08-22T20:15:24.331Z,12.68
2022-08-22T20:19:15.446Z,10.63
2022-08-22T20:22:35.517Z,5.75
2022-08-22T20:25:57.915Z,8.23
2022-08-22T20:29:15.409Z,8.08
2022-08-22T20:32:35.049Z,8.00
2022-08-22T20:35:56.937Z,7.70
2022-08-22T20:39:19.177Z,7.18
2022-08-22T20:42:38.195Z,5.90
2022-08-22T20:46:05.760Z,8.93
2022-08-22T20:49:29.289Z,8.50
2022-08-22T20:52:54.581Z,5.45
2022-08-22T20:56:12.821Z,6.00
2022-08-22T20:59:38.262Z,6.65
2022-08-22T21:02:59.694Z,4.63
2022-08-22T21:06:26.794Z,4.98
2022-08-22T21:09:56.636Z,5.05
2022-08-22T21:13:21.749Z,6.70
2022-08-22T21:16:40.803Z,6.28
2022-08-22T21:23:16.086Z,5.73
2022-08-22T21:26:37.316Z,6.90
2022-08-22T21:29:55.118Z,6.78
2022-08-22T21:33:11.254Z,6.33
2022-08-22T21:36:33.660Z,7.63
2022-08-22T21:39:55.224Z,7.93
2022-08-22T21:43:19.266Z,7.55
2022-08-22T21:46:36.828Z,6.88
2022-08-22T21:50:24.041Z,7.90
2022-08-22T21:53:40.230Z,7.60
2022-08-22T21:56:57.796Z,9.20
2022-08-22T22:00:32.295Z,7.28
2022-08-22T22:03:50.214Z,8.38
2022-08-22T22:07:06.250Z,7.48
2022-08-22T22:10:26.392Z,7.35
2022-08-22T22:13:43.055Z,9.43
2022-08-22T22:16:59.210Z,8.53
2022-08-22T22:20:18.329Z,11.05
2022-08-22T22:23:35.969Z,7.80
2022-08-22T22:26:52.153Z,9.78
2022-08-22T22:30:08.629Z,8.15
2022-08-22T22:33:24.988Z,8.20
2022-08-22T22:36:41.334Z,9.33
2022-08-22T22:39:57.579Z,9.75
2022-08-22T22:43:13.981Z,8.50
2022-08-22T22:46:31.146Z,9.83
2022-08-22T22:49:47.391Z,10.43
2022-08-22T22:53:04.374Z,8.90
2022-08-22T22:56:24.462Z,9.43
2022-08-22T22:59:40.578Z,9.60
2022-08-22T23:02:57.151Z,8.80
2022-08-22T23:06:17.559Z,8.98
2022-08-22T23:09:53.050Z,9.55
2022-08-22T23:13:10.806Z,8.40
2022-08-22T23:16:36.531Z,8.63
2022-08-22T23:19:49.644Z,11.40
2022-08-22T23:23:10.515Z,10.28
2022-08-22T23:26:26.726Z,9.60
2022-08-22T23:29:43.493Z,9.53
2022-08-22T23:32:59.867Z,10.93
2022-08-22T23:36:24.048Z,12.63
2022-08-22T23:39:41.631Z,13.35
2022-08-22T23:42:57.789Z,14.65
2022-08-22T23:46:14.136Z,15.15
2022-08-22T23:49:30.377Z,16.30
2022-08-22T23:52:46.691Z,17.50
2022-08-22T23:56:03.187Z,18.28
2022-08-22T23:59:24.203Z,18.03
